Columbus, MS

11:08 PM CDT on July 06, 2015 (GMT -0500)
Near Intersection of Hwys 82 | | Change Station
CLOSE
Current Station
Personal Weather Station
Location: Columbus, MS
Elevation: 154 ft
Nearby Weather Stations
Active Advisory: Flood Warning Active Notice: Record Report

Elev 154 ft 33.50 °N, 88.43 °W | Updated 1 second ago

Clear
Clear
78.4 °F
Feels Like 81 °F
N
5.0
Wind Variable Wind from SSE
Gusts 6.0 mph

Today
High -- | Low -- °F
--% Chance of Precip.
Yesterday
High -- | Low -- °F
Precip. -- in
5:49 AM 8:06 PM
Waning Gibbous, 69% visible
Pressure 30.09 in
Visibility 10.0 miles
Clouds Clear
Heat Index 81 °F
Dew Point 75 °F
Humidity 89%
Rainfall 0.00 in
Snow Depth Not available.
UV 0 out of 12
Pollen 3.00 out of 12
Air Quality Not available.
Flu Activity Not available.
METAR KGTR 070355Z 16005KT 10SM CLR 24/22 A3009 RMK AO1

More Conditions Fewer Conditions

Pressure 30.09 in
Visibility 10.0 miles
Clouds Clear
Heat Index 81 °F
Dew Point 75 °F
Humidity 89%
Rainfall 0.00 in
Snow Depth Not available.
UV 0 out of 12
Pollen 3.00 out of 12
Air Quality Not available.
Flu Activity Not available.
METAR KGTR 070355Z 16005KT 10SM CLR 24/22 A3009 RMK AO1

More Conditions Fewer Conditions

10-Day Weather Forecast

×

Almanac

Astronomy

Jul. 06, 2015 Rise Set
Actual Time
Civil Twilight
Nautical Twilight
Astronomical Twilight
Moon
Length of Visible Light
Length of Day
Tomorrow will be .
, % of the Moon is Illuminated

Today's Extremes

State Highs State Lows

Community

WunderPhotos

Upload Photos

1,835,716 photos uploaded!

WunderBlogs® & News

Nearby

Air Quality

  Air Quality AQ Index Pollutant
Not available.

Snow Depth

Station Depth Elevation

Earthquake Activity

City Distance Mag. Time & Date
Minimum magnitude displayed is 2.5.

Coastal Water Temperatures

Place Temperature

Stations

Nearby Weather Stations

Station Location Temp. Windchill Dew Point Humidity Wind Precip. Elev Updated Type
                   
Flood Warning
Statement as of 9:16 PM CDT on July 06, 2015

The Flood Warning continues for
the Buttahatchie river near Aberdeen
* until Thursday July 09.
* At 08 PM Monday the stage was 16.0 feet.
* Minor flooding is occurring and minor flooding is forecast.
* Maximum forecast stage of 16.6 feet Tuesday July 07.
* Flood stage is 13.0 feet.
* The river rose above flood stage Monday July 06 and will continue
rising to near 16.6 feet by Tuesday July 07. The river will fall
below flood stage Thursday July 09.
* At 18.0 feet... water is flowing over airbase Road on the West Bank
of the river


Lat... Lon 3409 8829 3409 8821 3373 8826 3365 8843
      3370 8844 3375 8839